createdAt,value
2023-03-15T00:01:18.562Z,97985.31
2023-03-15T00:03:46.679Z,97985.69
2023-03-15T00:06:13.920Z,97991.53
2023-03-15T00:08:40.713Z,97993.34
2023-03-15T00:11:07.671Z,97986.72
2023-03-15T00:13:34.355Z,97994.66
2023-03-15T00:16:05.899Z,97991.78
2023-03-15T00:18:32.689Z,98006.06
2023-03-15T00:20:59.347Z,98005.53
2023-03-15T00:23:25.960Z,98001.72
2023-03-15T00:25:53.579Z,98004.03
2023-03-15T00:28:20.381Z,98011.63
2023-03-15T00:30:46.969Z,98008.06
2023-03-15T00:33:15.146Z,98012.03
2023-03-15T00:35:45.099Z,98010.25
2023-03-15T00:38:13.589Z,98004.88
2023-03-15T00:40:40.474Z,98009.34
2023-03-15T00:43:06.917Z,98020.06
2023-03-15T00:45:33.436Z,98014.13
2023-03-15T00:48:00.372Z,98026.03
2023-03-15T00:50:27.084Z,98027.19
2023-03-15T00:52:53.629Z,98025.63
2023-03-15T00:55:21.672Z,98015.06
2023-03-15T00:57:48.508Z,98017.16
2023-03-15T01:00:24.410Z,98021.94
2023-03-15T01:02:53.384Z,98010.78
2023-03-15T01:05:21.299Z,98001.16
2023-03-15T01:07:48.264Z,98006.19
2023-03-15T01:10:15.932Z,97998.97
2023-03-15T01:12:42.698Z,98000.72
2023-03-15T01:15:13.733Z,97996.00
2023-03-15T01:17:40.850Z,98000.81
2023-03-15T01:20:08.660Z,97999.19
2023-03-15T01:22:35.178Z,98002.81
2023-03-15T01:25:01.817Z,98001.31
2023-03-15T01:27:28.346Z,98002.78
2023-03-15T01:29:55.239Z,98013.00
2023-03-15T01:32:21.729Z,98014.41
2023-03-15T01:34:48.402Z,98012.38
2023-03-15T01:37:15.628Z,98015.78
2023-03-15T01:39:42.814Z,98011.41
2023-03-15T01:42:10.686Z,98016.84
2023-03-15T01:45:02.783Z,98010.75
2023-03-15T01:47:29.266Z,98014.31
2023-03-15T01:50:08.525Z,98009.25
2023-03-15T01:52:40.978Z,98015.75
2023-03-15T01:55:14.017Z,98021.88
2023-03-15T01:57:56.035Z,98025.88
2023-03-15T02:00:22.753Z,98024.44
2023-03-15T02:03:23.623Z,98020.84
2023-03-15T02:05:59.028Z,98023.84
2023-03-15T02:08:32.740Z,98027.88
2023-03-15T02:11:04.547Z,98025.84
2023-03-15T02:13:34.444Z,98031.81
2023-03-15T02:16:01.732Z,98031.75
2023-03-15T02:18:28.266Z,98023.34
2023-03-15T02:21:37.682Z,98028.44
2023-03-15T02:24:45.523Z,98041.03
2023-03-15T02:27:12.104Z,98033.72
2023-03-15T02:29:38.793Z,98035.47
2023-03-15T02:32:05.588Z,98033.03
2023-03-15T02:34:32.279Z,98040.66
2023-03-15T02:36:58.787Z,98043.25
2023-03-15T02:39:25.837Z,98045.16
2023-03-15T02:41:58.544Z,98046.53
2023-03-15T02:44:35.410Z,98044.06
2023-03-15T02:47:11.124Z,98047.00
2023-03-15T02:49:43.519Z,98051.06
2023-03-15T02:52:12.048Z,98051.34
2023-03-15T02:54:39.230Z,98049.50
2023-03-15T02:57:05.999Z,98056.78
2023-03-15T02:59:32.441Z,98064.47
2023-03-15T03:01:58.966Z,98059.00
2023-03-15T03:04:25.561Z,98058.63
2023-03-15T03:06:52.055Z,98062.50
2023-03-15T03:09:18.743Z,98070.59
2023-03-15T03:11:45.280Z,98074.16
2023-03-15T03:14:14.038Z,98068.88
2023-03-15T03:16:42.667Z,98077.38
2023-03-15T03:19:12.450Z,98079.38
2023-03-15T03:21:38.915Z,98080.78
2023-03-15T03:24:05.676Z,98085.72
2023-03-15T03:26:32.638Z,98088.25
2023-03-15T03:28:59.123Z,98089.50
2023-03-15T03:31:27.924Z,98085.13
2023-03-15T03:33:56.858Z,98081.19
2023-03-15T03:36:24.835Z,98082.03
2023-03-15T03:38:52.198Z,98089.41
2023-03-15T03:41:18.658Z,98090.66
2023-03-15T03:43:45.149Z,98084.34
2023-03-15T03:46:11.722Z,98080.06
2023-03-15T03:48:38.301Z,98088.44
2023-03-15T03:51:05.508Z,98097.75
2023-03-15T03:53:31.973Z,98092.84
2023-03-15T03:55:58.449Z,98099.16
2023-03-15T03:58:25.051Z,98102.25
2023-03-15T04:00:55.622Z,98098.50
2023-03-15T04:03:27.328Z,98103.44
2023-03-15T04:05:56.315Z,98106.81
2023-03-15T04:08:25.919Z,98113.16
2023-03-15T04:10:57.684Z,98112.16
2023-03-15T04:13:25.478Z,98114.34
2023-03-15T04:15:52.114Z,98116.28
2023-03-15T04:18:18.699Z,98112.78
2023-03-15T04:20:47.560Z,98120.06
2023-03-15T04:23:19.175Z,98119.06
2023-03-15T04:25:49.814Z,98124.88
2023-03-15T04:28:18.124Z,98122.78
2023-03-15T04:30:45.712Z,98126.31
2023-03-15T04:33:12.251Z,98121.63
2023-03-15T04:35:39.588Z,98124.97
2023-03-15T04:38:06.598Z,98123.91
2023-03-15T04:40:36.744Z,98134.66
2023-03-15T04:43:05.459Z,98127.50
2023-03-15T04:45:32.673Z,98134.34
2023-03-15T04:48:01.443Z,98133.97
2023-03-15T04:50:29.711Z,98140.75
2023-03-15T04:52:59.585Z,98141.28
2023-03-15T04:55:26.432Z,98136.31
2023-03-15T04:57:53.139Z,98139.34
2023-03-15T05:00:20.236Z,98143.59
2023-03-15T05:02:52.075Z,98136.69
2023-03-15T05:05:18.613Z,98147.81
2023-03-15T05:07:45.120Z,98150.56
2023-03-15T05:10:12.087Z,98142.56
2023-03-15T05:12:38.919Z,98142.38
2023-03-15T05:15:06.274Z,98144.91
2023-03-15T05:17:33.655Z,98146.47
2023-03-15T05:20:10.422Z,98152.00
2023-03-15T05:22:37.535Z,98152.06
2023-03-15T05:25:04.542Z,98159.69
2023-03-15T05:27:33.865Z,98164.41
2023-03-15T05:30:04.573Z,98162.59
2023-03-15T05:32:34.396Z,98166.94
2023-03-15T05:35:02.046Z,98161.69
2023-03-15T05:37:29.328Z,98168.44
2023-03-15T05:39:56.335Z,98173.00
2023-03-15T05:42:26.116Z,98184.78
2023-03-15T05:44:53.788Z,98188.19
2023-03-15T05:47:20.837Z,98187.28
2023-03-15T05:49:48.875Z,98197.47
2023-03-15T05:52:16.569Z,98203.38
2023-03-15T05:54:43.082Z,98203.16
2023-03-15T05:57:10.070Z,98208.31
2023-03-15T05:59:36.637Z,98205.25
2023-03-15T06:02:04.000Z,98211.78
2023-03-15T06:04:30.495Z,98214.38
2023-03-15T06:06:57.617Z,98227.44
2023-03-15T06:09:24.119Z,98224.19
2023-03-15T06:11:50.939Z,98216.09
2023-03-15T06:14:17.636Z,98221.31
2023-03-15T06:16:44.119Z,98234.47
2023-03-15T06:19:10.608Z,98234.59
2023-03-15T06:21:37.051Z,98242.66
2023-03-15T06:24:03.898Z,98236.97
2023-03-15T06:26:30.704Z,98245.19
2023-03-15T06:28:57.414Z,98249.38
2023-03-15T06:31:23.924Z,98252.38
2023-03-15T06:33:50.498Z,98249.78
2023-03-15T06:36:16.924Z,98254.25
2023-03-15T06:38:43.416Z,98252.78
2023-03-15T06:41:09.905Z,98265.41
2023-03-15T06:43:36.589Z,98264.50
2023-03-15T06:46:03.185Z,98269.00
2023-03-15T06:48:29.856Z,98272.38
2023-03-15T06:50:56.337Z,98271.09
2023-03-15T06:53:22.844Z,98272.13
2023-03-15T06:55:50.674Z,98290.56
2023-03-15T06:58:17.842Z,98278.72
2023-03-15T07:00:44.433Z,98286.69
2023-03-15T07:03:10.960Z,98283.38
2023-03-15T07:05:37.443Z,98283.69
2023-03-15T07:08:04.319Z,98283.97
2023-03-15T07:10:31.013Z,98285.53
2023-03-15T07:12:57.831Z,98289.09
2023-03-15T07:15:24.480Z,98287.84
2023-03-15T07:17:50.976Z,98293.22
2023-03-15T07:20:17.661Z,98306.59
2023-03-15T07:22:45.534Z,98313.75
2023-03-15T07:25:12.170Z,98319.28
2023-03-15T07:27:38.738Z,98328.22
2023-03-15T07:30:08.043Z,98328.09
2023-03-15T07:32:34.557Z,98336.22
2023-03-15T07:35:01.091Z,98344.34
2023-03-15T07:37:29.204Z,98350.13
2023-03-15T07:39:55.728Z,98350.19
2023-03-15T07:42:22.235Z,98346.97
2023-03-15T07:44:48.805Z,98351.53
2023-03-15T07:47:15.240Z,98352.44
2023-03-15T07:49:41.744Z,98360.78
2023-03-15T07:52:08.917Z,98367.91
2023-03-15T07:54:35.392Z,98372.88
2023-03-15T07:57:01.832Z,98380.69
2023-03-15T07:59:28.401Z,98382.25
2023-03-15T08:01:55.273Z,98386.53
2023-03-15T08:04:21.778Z,98394.44
2023-03-15T08:06:48.309Z,98390.88
2023-03-15T08:09:14.810Z,98402.97
2023-03-15T08:11:42.222Z,98400.78
2023-03-15T08:14:10.010Z,98417.50
2023-03-15T08:16:36.630Z,98406.38
2023-03-15T08:19:03.307Z,98424.28
2023-03-15T08:21:29.776Z,98424.16
2023-03-15T08:23:56.249Z,98427.72
2023-03-15T08:26:22.695Z,98429.13
2023-03-15T08:28:49.156Z,98436.47
2023-03-15T08:31:15.835Z,98442.66
2023-03-15T08:33:42.635Z,98453.41
2023-03-15T08:36:09.759Z,98453.78
2023-03-15T08:38:36.684Z,98451.63
2023-03-15T08:41:03.530Z,98455.47
2023-03-15T08:43:30.052Z,98453.78
2023-03-15T08:46:01.248Z,98467.25
2023-03-15T08:48:28.575Z,98476.81
2023-03-15T08:50:55.188Z,98474.47
2023-03-15T08:53:23.050Z,98482.28
2023-03-15T08:55:49.678Z,98471.63
2023-03-15T08:58:16.454Z,98481.84
2023-03-15T09:00:43.003Z,98481.28
2023-03-15T09:03:09.710Z,98482.41
2023-03-15T09:05:36.403Z,98484.34
2023-03-15T09:08:03.260Z,98478.59
2023-03-15T09:10:29.789Z,98484.81
2023-03-15T09:12:56.383Z,98479.09
2023-03-15T09:15:22.954Z,98489.69
2023-03-15T09:17:53.513Z,98488.88
2023-03-15T09:20:22.798Z,98493.00
2023-03-15T09:22:57.926Z,98490.72
2023-03-15T09:25:25.883Z,98495.59
2023-03-15T09:27:52.785Z,98497.94
2023-03-15T09:30:20.278Z,98500.59
2023-03-15T09:32:47.612Z,98502.00
2023-03-15T09:35:18.456Z,98509.78
2023-03-15T09:37:45.580Z,98519.28
2023-03-15T09:40:39.397Z,98517.25
2023-03-15T09:43:08.846Z,98529.78
2023-03-15T09:46:16.718Z,98516.19
2023-03-15T09:49:18.629Z,98525.59
2023-03-15T09:52:09.722Z,98524.66
2023-03-15T09:54:58.050Z,98534.72
2023-03-15T09:57:43.905Z,98547.41
2023-03-15T10:00:20.703Z,98556.75
2023-03-15T10:02:59.468Z,98548.28
2023-03-15T10:06:10.521Z,98554.84
2023-03-15T10:08:38.084Z,98554.91
2023-03-15T10:11:29.790Z,98560.84
2023-03-15T10:14:22.492Z,98552.06
2023-03-15T10:16:51.998Z,98551.63
2023-03-15T10:19:50.889Z,98555.59
2023-03-15T10:22:44.540Z,98560.00
2023-03-15T10:25:26.132Z,98555.94
2023-03-15T10:28:27.882Z,98552.81
2023-03-15T10:31:00.796Z,98550.34
2023-03-15T10:33:39.033Z,98550.53
2023-03-15T10:36:19.919Z,98553.34
2023-03-15T10:38:48.413Z,98543.72
2023-03-15T10:41:48.552Z,98552.03
2023-03-15T10:44:23.224Z,98551.75
2023-03-15T10:47:23.112Z,98564.38
2023-03-15T10:49:57.094Z,98561.69
2023-03-15T10:52:35.198Z,98563.44
2023-03-15T10:55:15.473Z,98565.34
2023-03-15T10:57:56.033Z,98562.94
2023-03-15T11:00:32.964Z,98564.97
2023-03-15T11:03:07.963Z,98574.56
2023-03-15T11:05:49.243Z,98571.13
2023-03-15T11:08:41.710Z,98569.00
2023-03-15T11:11:09.800Z,98571.53
2023-03-15T11:13:40.302Z,98574.19
2023-03-15T11:16:12.771Z,98583.72
2023-03-15T11:18:58.122Z,98575.56
2023-03-15T11:21:33.492Z,98576.97
2023-03-15T11:24:04.439Z,98582.94
2023-03-15T11:26:37.910Z,98580.22
2023-03-15T11:29:21.457Z,98581.06
2023-03-15T11:31:51.190Z,98577.94
2023-03-15T11:34:36.403Z,98575.03
2023-03-15T11:37:14.452Z,98586.00
2023-03-15T11:40:11.539Z,98584.72
2023-03-15T11:42:50.847Z,98584.38
2023-03-15T11:45:31.689Z,98588.44
2023-03-15T11:48:13.027Z,98593.91
2023-03-15T11:50:40.306Z,98601.59
2023-03-15T11:53:10.718Z,98598.50
2023-03-15T11:55:37.655Z,98597.84
2023-03-15T11:58:42.383Z,98612.47
2023-03-15T12:01:23.867Z,98613.22
2023-03-15T12:03:50.630Z,98608.66
2023-03-15T12:06:17.106Z,98615.38
2023-03-15T12:09:01.811Z,98622.53
2023-03-15T12:11:28.242Z,98621.22
2023-03-15T12:14:00.296Z,98627.63
2023-03-15T12:16:30.931Z,98621.88
2023-03-15T12:19:01.252Z,98636.41
2023-03-15T12:21:40.085Z,98625.22
2023-03-15T12:24:17.315Z,98634.84
2023-03-15T12:26:48.195Z,98628.34
2023-03-15T12:29:26.770Z,98627.44
2023-03-15T12:32:02.033Z,98625.25
2023-03-15T12:34:51.351Z,98628.47
2023-03-15T12:37:24.371Z,98622.84
2023-03-15T12:40:01.368Z,98614.44
2023-03-15T12:42:31.150Z,98618.34
2023-03-15T12:45:15.892Z,98616.34
2023-03-15T12:47:52.187Z,98625.34
2023-03-15T12:50:46.915Z,98622.66
2023-03-15T12:53:31.850Z,98618.47
2023-03-15T12:56:28.087Z,98622.41
2023-03-15T12:59:04.813Z,98623.69
2023-03-15T13:01:33.366Z,98621.84
2023-03-15T13:04:00.500Z,98618.25
2023-03-15T13:06:50.757Z,98619.88
2023-03-15T13:09:27.408Z,98629.94
2023-03-15T13:11:58.497Z,98624.16
2023-03-15T13:14:59.679Z,98615.06
2023-03-15T13:17:47.405Z,98621.06
2023-03-15T13:20:59.994Z,98621.19
2023-03-15T13:23:30.630Z,98615.88
2023-03-15T13:26:09.113Z,98614.16
2023-03-15T13:28:42.419Z,98613.69
2023-03-15T13:31:25.685Z,98618.72
2023-03-15T13:33:57.467Z,98619.56
2023-03-15T13:36:38.613Z,98625.94
2023-03-15T13:39:19.393Z,98623.59
2023-03-15T13:41:46.413Z,98619.16
2023-03-15T13:44:20.000Z,98622.84
2023-03-15T13:46:49.273Z,98623.66
2023-03-15T13:49:17.154Z,98626.50
2023-03-15T13:51:45.796Z,98622.94
2023-03-15T13:54:33.520Z,98618.59
2023-03-15T13:57:06.229Z,98617.63
2023-03-15T13:59:42.989Z,98625.63
2023-03-15T14:02:33.152Z,98628.59
2023-03-15T14:05:11.137Z,98623.47
2023-03-15T14:07:44.238Z,98625.81
2023-03-15T14:10:36.584Z,98618.66
2023-03-15T14:13:27.485Z,98614.66
2023-03-15T14:16:14.029Z,98623.19
2023-03-15T14:18:42.574Z,98628.91
2023-03-15T14:21:31.075Z,98630.03
2023-03-15T14:23:57.723Z,98624.06
2023-03-15T14:26:30.057Z,98631.97
2023-03-15T14:29:08.317Z,98630.19
2023-03-15T14:31:46.574Z,98640.63
2023-03-15T14:34:25.179Z,98645.88
2023-03-15T14:36:54.287Z,98645.41
2023-03-15T14:39:30.007Z,98641.13
2023-03-15T14:41:56.936Z,98654.25
2023-03-15T14:44:23.400Z,98657.13
2023-03-15T14:46:50.770Z,98655.09
2023-03-15T14:49:26.706Z,98648.41
2023-03-15T14:52:06.306Z,98652.19
2023-03-15T14:54:33.911Z,98653.13
2023-03-15T14:57:00.753Z,98653.72
2023-03-15T14:59:27.340Z,98649.13
2023-03-15T15:01:57.840Z,98647.50
2023-03-15T15:04:33.409Z,98653.94
2023-03-15T15:07:02.984Z,98658.03
2023-03-15T15:09:31.006Z,98660.19
2023-03-15T15:11:57.554Z,98663.44
2023-03-15T15:14:24.225Z,98665.81
2023-03-15T15:16:51.771Z,98668.81
2023-03-15T15:19:18.301Z,98674.03
2023-03-15T15:21:44.980Z,98666.25
2023-03-15T15:24:17.004Z,98679.56
2023-03-15T15:26:44.237Z,98680.25
2023-03-15T15:29:14.812Z,98674.66
2023-03-15T15:31:43.334Z,98673.91
2023-03-15T15:34:11.990Z,98674.47
2023-03-15T15:36:42.361Z,98687.72
2023-03-15T15:39:30.854Z,98675.28
2023-03-15T15:41:57.330Z,98681.69
2023-03-15T15:44:25.899Z,98676.59
2023-03-15T15:46:53.371Z,98676.78
2023-03-15T15:49:20.916Z,98674.41
2023-03-15T15:51:49.898Z,98671.47
2023-03-15T15:54:21.564Z,98681.94
2023-03-15T15:56:57.409Z,98683.47
2023-03-15T15:59:27.336Z,98683.41
2023-03-15T16:02:03.115Z,98676.94
2023-03-15T16:04:30.736Z,98684.19
2023-03-15T16:07:02.183Z,98682.53
2023-03-15T16:09:35.897Z,98679.16
2023-03-15T16:12:03.688Z,98677.16
2023-03-15T16:14:30.475Z,98675.94
2023-03-15T16:16:56.958Z,98686.94
2023-03-15T16:19:23.453Z,98680.16
2023-03-15T16:21:54.341Z,98677.06
2023-03-15T16:24:30.103Z,98679.75
2023-03-15T16:27:02.835Z,98679.09
2023-03-15T16:29:39.016Z,98685.88
2023-03-15T16:32:16.919Z,98677.41
2023-03-15T16:34:47.240Z,98682.84
2023-03-15T16:37:18.062Z,98687.34
2023-03-15T16:39:52.644Z,98683.13
2023-03-15T16:42:20.251Z,98689.41
2023-03-15T16:44:46.846Z,98689.97
2023-03-15T16:47:13.501Z,98691.53
2023-03-15T16:49:40.015Z,98692.63
2023-03-15T16:52:08.813Z,98688.91
2023-03-15T16:54:41.323Z,98684.63
2023-03-15T16:57:26.989Z,98682.97
2023-03-15T16:59:53.906Z,98689.03
2023-03-15T17:02:24.645Z,98699.13
2023-03-15T17:04:52.792Z,98696.72
2023-03-15T17:07:31.478Z,98697.75
2023-03-15T17:10:00.557Z,98708.03
2023-03-15T17:12:29.475Z,98708.44
2023-03-15T17:14:59.142Z,98706.00
2023-03-15T17:17:32.435Z,98714.59
2023-03-15T17:20:00.393Z,98717.31
2023-03-15T17:22:27.169Z,98718.75
2023-03-15T17:24:54.065Z,98718.94
2023-03-15T17:27:31.574Z,98714.97
2023-03-15T17:29:58.681Z,98722.13
2023-03-15T17:32:25.308Z,98726.00
2023-03-15T17:34:52.243Z,98725.22
2023-03-15T17:37:18.984Z,98729.53
2023-03-15T17:39:47.362Z,98722.50
2023-03-15T17:42:15.296Z,98731.38
2023-03-15T17:44:42.353Z,98733.00
2023-03-15T17:47:12.676Z,98738.13
2023-03-15T17:49:39.594Z,98736.19
2023-03-15T17:52:15.274Z,98739.69
2023-03-15T17:54:41.839Z,98745.09
2023-03-15T17:57:12.627Z,98753.88
2023-03-15T17:59:39.719Z,98752.25
2023-03-15T18:02:15.098Z,98752.50
2023-03-15T18:04:41.911Z,98753.59
2023-03-15T18:07:08.345Z,98749.63
2023-03-15T18:09:34.785Z,98759.66
2023-03-15T18:12:02.240Z,98756.06
2023-03-15T18:14:31.092Z,98759.72
2023-03-15T18:16:57.857Z,98758.03
2023-03-15T18:19:25.234Z,98765.19
2023-03-15T18:21:51.669Z,98758.38
2023-03-15T18:24:19.070Z,98764.16
2023-03-15T18:26:45.570Z,98766.75
2023-03-15T18:29:12.166Z,98765.06
2023-03-15T18:31:38.924Z,98771.53
2023-03-15T18:34:06.655Z,98770.81
2023-03-15T18:36:33.233Z,98775.16
2023-03-15T18:39:00.883Z,98784.50
2023-03-15T18:41:28.547Z,98781.19
2023-03-15T18:43:55.051Z,98778.03
2023-03-15T18:46:24.869Z,98779.19
2023-03-15T18:48:56.474Z,98784.06
2023-03-15T18:51:25.943Z,98783.34
2023-03-15T18:53:52.696Z,98789.56
2023-03-15T18:56:25.915Z,98782.69
2023-03-15T18:58:54.094Z,98789.88
2023-03-15T19:01:22.960Z,98793.75
2023-03-15T19:03:52.442Z,98792.19
2023-03-15T19:06:20.732Z,98788.25
2023-03-15T19:08:53.126Z,98789.47
2023-03-15T19:11:23.711Z,98794.00
2023-03-15T19:13:51.203Z,98795.13
2023-03-15T19:16:19.854Z,98802.66
2023-03-15T19:18:47.006Z,98799.78
2023-03-15T19:21:14.274Z,98809.19
2023-03-15T19:23:40.795Z,98810.22
2023-03-15T19:26:07.376Z,98815.31
2023-03-15T19:28:33.989Z,98816.22
2023-03-15T19:31:00.542Z,98818.69
2023-03-15T19:33:27.094Z,98814.06
2023-03-15T19:35:53.675Z,98812.94
2023-03-15T19:38:20.247Z,98811.84
2023-03-15T19:40:47.117Z,98811.72
2023-03-15T19:43:15.027Z,98807.44
2023-03-15T19:45:41.688Z,98814.31
2023-03-15T19:48:08.194Z,98819.38
2023-03-15T19:50:34.839Z,98829.06
2023-03-15T19:53:01.448Z,98827.69
2023-03-15T19:55:31.128Z,98825.88
2023-03-15T19:57:58.224Z,98829.63
2023-03-15T20:00:25.121Z,98829.63
2023-03-15T20:02:51.807Z,98823.59
2023-03-15T20:05:21.411Z,98826.66
2023-03-15T20:07:51.630Z,98830.31
2023-03-15T20:10:20.029Z,98828.44
2023-03-15T20:12:47.250Z,98835.16
2023-03-15T20:15:17.517Z,98828.66
2023-03-15T20:17:45.249Z,98819.88
2023-03-15T20:20:13.641Z,98819.19
2023-03-15T20:22:43.633Z,98826.34
2023-03-15T20:25:13.652Z,98824.06
2023-03-15T20:27:41.636Z,98832.00
2023-03-15T20:30:10.572Z,98839.72
2023-03-15T20:32:37.189Z,98841.56
2023-03-15T20:35:08.806Z,98850.03
2023-03-15T20:37:39.678Z,98851.38
2023-03-15T20:40:09.559Z,98860.50
2023-03-15T20:42:36.265Z,98861.53
2023-03-15T20:45:04.321Z,98855.81
2023-03-15T20:47:31.264Z,98859.25
2023-03-15T20:49:57.780Z,98862.03
2023-03-15T20:52:25.167Z,98856.03
2023-03-15T20:54:51.704Z,98856.78
2023-03-15T20:57:18.216Z,98862.03
2023-03-15T20:59:44.811Z,98856.94
2023-03-15T21:02:11.353Z,98856.72
2023-03-15T21:04:37.914Z,98857.28
2023-03-15T21:07:04.465Z,98857.84
2023-03-15T21:09:32.604Z,98851.13
2023-03-15T21:12:00.076Z,98855.72
2023-03-15T21:14:26.662Z,98860.13
2023-03-15T21:16:53.400Z,98853.38
2023-03-15T21:19:20.169Z,98850.97
2023-03-15T21:21:46.948Z,98852.03
2023-03-15T21:24:13.481Z,98857.84
2023-03-15T21:26:40.027Z,98865.72
2023-03-15T21:29:06.794Z,98862.13
2023-03-15T21:31:33.333Z,98859.25
2023-03-15T21:33:59.873Z,98853.38
2023-03-15T21:36:26.330Z,98856.19
2023-03-15T21:38:52.845Z,98842.47
2023-03-15T21:41:19.349Z,98851.66
2023-03-15T21:43:45.939Z,98846.34
2023-03-15T21:46:13.922Z,98849.28
2023-03-15T21:48:41.880Z,98846.81
2023-03-15T21:51:09.036Z,98839.72
2023-03-15T21:53:36.330Z,98836.69
2023-03-15T21:56:04.022Z,98838.03
2023-03-15T21:58:31.257Z,98838.97
2023-03-15T22:01:05.663Z,98841.81
2023-03-15T22:03:34.400Z,98835.63
2023-03-15T22:06:01.487Z,98830.22
2023-03-15T22:08:28.549Z,98844.78
2023-03-15T22:10:58.400Z,98849.22
2023-03-15T22:13:26.278Z,98839.78
2023-03-15T22:15:53.295Z,98829.56
2023-03-15T22:18:20.654Z,98833.94
2023-03-15T22:20:49.774Z,98829.59
2023-03-15T22:23:16.798Z,98822.09
2023-03-15T22:25:43.308Z,98816.06
2023-03-15T22:28:10.326Z,98817.72
2023-03-15T22:30:37.095Z,98826.38
2023-03-15T22:33:03.882Z,98822.19
2023-03-15T22:35:30.441Z,98820.59
2023-03-15T22:37:57.170Z,98830.06
2023-03-15T22:40:26.990Z,98821.69
2023-03-15T22:42:53.947Z,98820.13
2023-03-15T22:45:21.336Z,98824.34
2023-03-15T22:47:51.105Z,98826.00
2023-03-15T22:50:17.914Z,98821.69
2023-03-15T22:52:44.534Z,98825.06
2023-03-15T22:55:11.838Z,98825.06
2023-03-15T22:57:38.847Z,98820.03
2023-03-15T23:00:13.447Z,98820.19
2023-03-15T23:02:44.838Z,98827.06
2023-03-15T23:05:13.103Z,98824.22
2023-03-15T23:07:40.470Z,98834.47
2023-03-15T23:10:08.566Z,98823.94
2023-03-15T23:12:36.482Z,98822.19
2023-03-15T23:15:04.501Z,98831.97
2023-03-15T23:17:31.436Z,98825.38
2023-03-15T23:19:58.246Z,98815.13
2023-03-15T23:22:24.793Z,98822.81
2023-03-15T23:24:51.554Z,98825.31
2023-03-15T23:27:18.106Z,98817.69
2023-03-15T23:29:54.148Z,98816.03
2023-03-15T23:32:21.276Z,98821.06
2023-03-15T23:34:48.052Z,98817.34
2023-03-15T23:37:15.037Z,98825.06
2023-03-15T23:39:41.969Z,98820.03
2023-03-15T23:42:09.937Z,98813.22
2023-03-15T23:44:36.485Z,98812.47
2023-03-15T23:47:03.464Z,98818.78
2023-03-15T23:49:29.978Z,98823.31
2023-03-15T23:51:56.494Z,98822.44
2023-03-15T23:54:23.743Z,98818.06
2023-03-15T23:56:50.595Z,98821.47
2023-03-15T23:59:17.428Z,98817.84
